sensor_id;sensor_type;location;lat;lon;timestamp;P1;durP1;ratioP1;P2;durP2;ratioP2
55813;SDS011;65494;42.818;0.404;2023-04-25T00:00:04;5.05;;;2.15;;
55813;SDS011;65494;42.818;0.404;2023-04-25T00:02:32;6.00;;;2.50;;
55813;SDS011;65494;42.818;0.404;2023-04-25T00:05:00;5.32;;;2.22;;
55813;SDS011;65494;42.818;0.404;2023-04-25T00:07:26;8.35;;;3.53;;
55813;SDS011;65494;42.818;0.404;2023-04-25T00:09:53;3.50;;;2.15;;
55813;SDS011;65494;42.818;0.404;2023-04-25T00:12:19;4.97;;;2.50;;
55813;SDS011;65494;42.818;0.404;2023-04-25T00:14:46;4.03;;;2.67;;
55813;SDS011;65494;42.818;0.404;2023-04-25T00:17:14;7.78;;;2.83;;
55813;SDS011;65494;42.818;0.404;2023-04-25T00:19:41;5.28;;;2.70;;
55813;SDS011;65494;42.818;0.404;2023-04-25T00:22:09;9.63;;;2.55;;
55813;SDS011;65494;42.818;0.404;2023-04-25T00:24:35;6.43;;;2.60;;
55813;SDS011;65494;42.818;0.404;2023-04-25T00:27:01;5.70;;;2.45;;
55813;SDS011;65494;42.818;0.404;2023-04-25T00:29:28;4.25;;;2.13;;
55813;SDS011;65494;42.818;0.404;2023-04-25T00:31:54;5.05;;;2.55;;
55813;SDS011;65494;42.818;0.404;2023-04-25T00:34:20;4.47;;;2.47;;
55813;SDS011;65494;42.818;0.404;2023-04-25T00:36:46;4.40;;;2.30;;
55813;SDS011;65494;42.818;0.404;2023-04-25T00:39:12;6.70;;;2.95;;
55813;SDS011;65494;42.818;0.404;2023-04-25T00:41:38;4.38;;;2.35;;
55813;SDS011;65494;42.818;0.404;2023-04-25T00:44:04;5.22;;;2.58;;
55813;SDS011;65494;42.818;0.404;2023-04-25T00:46:32;4.82;;;2.30;;
55813;SDS011;65494;42.818;0.404;2023-04-25T00:48:58;6.15;;;2.25;;
55813;SDS011;65494;42.818;0.404;2023-04-25T00:51:24;8.35;;;2.80;;
55813;SDS011;65494;42.818;0.404;2023-04-25T00:53:55;5.68;;;2.58;;
55813;SDS011;65494;42.818;0.404;2023-04-25T00:56:21;6.28;;;2.75;;
55813;SDS011;65494;42.818;0.404;2023-04-25T00:58:48;5.88;;;2.85;;
55813;SDS011;65494;42.818;0.404;2023-04-25T01:01:15;7.45;;;3.00;;
55813;SDS011;65494;42.818;0.404;2023-04-25T01:03:44;5.22;;;2.85;;
55813;SDS011;65494;42.818;0.404;2023-04-25T01:06:14;5.03;;;2.53;;
55813;SDS011;65494;42.818;0.404;2023-04-25T01:08:41;8.50;;;2.90;;
55813;SDS011;65494;42.818;0.404;2023-04-25T01:11:07;4.95;;;3.10;;
55813;SDS011;65494;42.818;0.404;2023-04-25T01:13:33;7.32;;;2.70;;
55813;SDS011;65494;42.818;0.404;2023-04-25T01:15:59;5.53;;;2.85;;
55813;SDS011;65494;42.818;0.404;2023-04-25T01:18:26;5.57;;;3.15;;
55813;SDS011;65494;42.818;0.404;2023-04-25T01:20:52;9.70;;;3.53;;
55813;SDS011;65494;42.818;0.404;2023-04-25T01:23:19;5.50;;;2.92;;
55813;SDS011;65494;42.818;0.404;2023-04-25T01:25:45;6.25;;;3.15;;
55813;SDS011;65494;42.818;0.404;2023-04-25T01:28:12;8.32;;;3.05;;
55813;SDS011;65494;42.818;0.404;2023-04-25T01:30:38;7.95;;;3.20;;
55813;SDS011;65494;42.818;0.404;2023-04-25T01:33:05;9.80;;;3.60;;
55813;SDS011;65494;42.818;0.404;2023-04-25T01:35:32;4.30;;;2.85;;
55813;SDS011;65494;42.818;0.404;2023-04-25T01:37:58;6.97;;;2.97;;
55813;SDS011;65494;42.818;0.404;2023-04-25T01:40:24;5.55;;;2.58;;
55813;SDS011;65494;42.818;0.404;2023-04-25T01:42:50;5.10;;;3.00;;
55813;SDS011;65494;42.818;0.404;2023-04-25T01:45:18;5.97;;;2.95;;
55813;SDS011;65494;42.818;0.404;2023-04-25T01:47:45;4.53;;;2.75;;
55813;SDS011;65494;42.818;0.404;2023-04-25T01:50:14;7.05;;;2.85;;
55813;SDS011;65494;42.818;0.404;2023-04-25T01:52:40;7.05;;;3.22;;
55813;SDS011;65494;42.818;0.404;2023-04-25T01:55:06;8.27;;;3.17;;
55813;SDS011;65494;42.818;0.404;2023-04-25T01:57:32;5.57;;;2.53;;
55813;SDS011;65494;42.818;0.404;2023-04-25T02:00:00;6.40;;;2.97;;
55813;SDS011;65494;42.818;0.404;2023-04-25T02:02:29;6.03;;;2.85;;
55813;SDS011;65494;42.818;0.404;2023-04-25T02:04:55;7.13;;;3.58;;
55813;SDS011;65494;42.818;0.404;2023-04-25T02:07:21;6.43;;;2.97;;
55813;SDS011;65494;42.818;0.404;2023-04-25T02:09:50;6.20;;;2.92;;
55813;SDS011;65494;42.818;0.404;2023-04-25T02:12:16;4.65;;;2.90;;
55813;SDS011;65494;42.818;0.404;2023-04-25T02:17:54;6.28;;;3.03;;
55813;SDS011;65494;42.818;0.404;2023-04-25T02:20:25;4.63;;;2.80;;
55813;SDS011;65494;42.818;0.404;2023-04-25T02:22:51;5.22;;;2.97;;
55813;SDS011;65494;42.818;0.404;2023-04-25T02:25:18;5.03;;;2.50;;
55813;SDS011;65494;42.818;0.404;2023-04-25T02:27:45;5.20;;;2.50;;
55813;SDS011;65494;42.818;0.404;2023-04-25T02:30:11;5.45;;;2.60;;
55813;SDS011;65494;42.818;0.404;2023-04-25T02:32:38;5.47;;;2.65;;
55813;SDS011;65494;42.818;0.404;2023-04-25T02:35:04;7.65;;;3.28;;
55813;SDS011;65494;42.818;0.404;2023-04-25T02:37:31;5.28;;;2.58;;
55813;SDS011;65494;42.818;0.404;2023-04-25T02:39:57;4.53;;;2.50;;
55813;SDS011;65494;42.818;0.404;2023-04-25T02:42:23;4.40;;;2.35;;
55813;SDS011;65494;42.818;0.404;2023-04-25T02:44:52;5.15;;;2.85;;
55813;SDS011;65494;42.818;0.404;2023-04-25T02:47:18;8.55;;;3.42;;
55813;SDS011;65494;42.818;0.404;2023-04-25T02:49:44;5.55;;;2.90;;
55813;SDS011;65494;42.818;0.404;2023-04-25T02:52:11;5.72;;;2.95;;
55813;SDS011;65494;42.818;0.404;2023-04-25T02:54:37;6.22;;;3.10;;
55813;SDS011;65494;42.818;0.404;2023-04-25T02:57:04;6.97;;;3.17;;
55813;SDS011;65494;42.818;0.404;2023-04-25T02:59:30;6.15;;;3.25;;
55813;SDS011;65494;42.818;0.404;2023-04-25T03:01:56;7.88;;;3.65;;
55813;SDS011;65494;42.818;0.404;2023-04-25T03:04:22;9.27;;;4.07;;
55813;SDS011;65494;42.818;0.404;2023-04-25T03:06:49;7.47;;;3.75;;
55813;SDS011;65494;42.818;0.404;2023-04-25T03:09:15;7.43;;;4.05;;
55813;SDS011;65494;42.818;0.404;2023-04-25T03:11:41;7.65;;;3.88;;
55813;SDS011;65494;42.818;0.404;2023-04-25T03:14:07;7.55;;;4.15;;
55813;SDS011;65494;42.818;0.404;2023-04-25T03:16:33;6.55;;;3.53;;
55813;SDS011;65494;42.818;0.404;2023-04-25T03:18:59;7.93;;;3.83;;
55813;SDS011;65494;42.818;0.404;2023-04-25T03:21:25;8.57;;;3.80;;
55813;SDS011;65494;42.818;0.404;2023-04-25T03:23:51;7.32;;;3.30;;
55813;SDS011;65494;42.818;0.404;2023-04-25T03:26:18;7.60;;;3.97;;
55813;SDS011;65494;42.818;0.404;2023-04-25T03:28:44;6.50;;;2.95;;
55813;SDS011;65494;42.818;0.404;2023-04-25T03:31:10;6.55;;;3.33;;
55813;SDS011;65494;42.818;0.404;2023-04-25T03:33:36;5.68;;;3.28;;
55813;SDS011;65494;42.818;0.404;2023-04-25T03:36:02;6.28;;;3.28;;
55813;SDS011;65494;42.818;0.404;2023-04-25T03:38:28;5.72;;;3.13;;
55813;SDS011;65494;42.818;0.404;2023-04-25T03:40:54;7.18;;;3.15;;
55813;SDS011;65494;42.818;0.404;2023-04-25T03:43:25;6.50;;;3.38;;
55813;SDS011;65494;42.818;0.404;2023-04-25T03:45:51;7.85;;;3.67;;
55813;SDS011;65494;42.818;0.404;2023-04-25T03:48:17;7.30;;;3.20;;
55813;SDS011;65494;42.818;0.404;2023-04-25T03:50:46;5.93;;;3.20;;
55813;SDS011;65494;42.818;0.404;2023-04-25T03:53:12;8.95;;;3.80;;
55813;SDS011;65494;42.818;0.404;2023-04-25T03:55:38;5.13;;;3.33;;
55813;SDS011;65494;42.818;0.404;2023-04-25T03:58:05;6.80;;;3.83;;
55813;SDS011;65494;42.818;0.404;2023-04-25T04:00:33;7.47;;;3.47;;
55813;SDS011;65494;42.818;0.404;2023-04-25T04:02:59;6.70;;;3.58;;
55813;SDS011;65494;42.818;0.404;2023-04-25T04:05:25;8.00;;;3.47;;
55813;SDS011;65494;42.818;0.404;2023-04-25T04:07:52;6.03;;;3.50;;
55813;SDS011;65494;42.818;0.404;2023-04-25T04:10:18;5.45;;;3.38;;
55813;SDS011;65494;42.818;0.404;2023-04-25T04:12:44;5.85;;;3.17;;
55813;SDS011;65494;42.818;0.404;2023-04-25T04:15:10;6.90;;;4.25;;
55813;SDS011;65494;42.818;0.404;2023-04-25T04:17:37;6.30;;;3.40;;
55813;SDS011;65494;42.818;0.404;2023-04-25T04:20:03;8.52;;;3.47;;
55813;SDS011;65494;42.818;0.404;2023-04-25T04:22:29;8.25;;;3.45;;
55813;SDS011;65494;42.818;0.404;2023-04-25T04:24:55;5.22;;;2.88;;
55813;SDS011;65494;42.818;0.404;2023-04-25T04:27:22;5.50;;;3.33;;
55813;SDS011;65494;42.818;0.404;2023-04-25T04:29:48;6.55;;;3.65;;
55813;SDS011;65494;42.818;0.404;2023-04-25T04:32:15;8.07;;;3.58;;
55813;SDS011;65494;42.818;0.404;2023-04-25T04:34:46;6.70;;;3.90;;
55813;SDS011;65494;42.818;0.404;2023-04-25T04:37:13;7.60;;;3.65;;
55813;SDS011;65494;42.818;0.404;2023-04-25T04:39:39;6.60;;;3.58;;
55813;SDS011;65494;42.818;0.404;2023-04-25T04:42:06;5.93;;;3.30;;
55813;SDS011;65494;42.818;0.404;2023-04-25T04:44:32;6.63;;;3.10;;
55813;SDS011;65494;42.818;0.404;2023-04-25T04:46:58;5.82;;;3.13;;
55813;SDS011;65494;42.818;0.404;2023-04-25T04:49:24;6.53;;;3.40;;
55813;SDS011;65494;42.818;0.404;2023-04-25T04:51:51;5.18;;;3.00;;
55813;SDS011;65494;42.818;0.404;2023-04-25T04:54:23;5.70;;;2.97;;
55813;SDS011;65494;42.818;0.404;2023-04-25T04:56:49;5.15;;;2.72;;
55813;SDS011;65494;42.818;0.404;2023-04-25T04:59:17;4.43;;;2.67;;
55813;SDS011;65494;42.818;0.404;2023-04-25T05:01:43;6.53;;;2.53;;
55813;SDS011;65494;42.818;0.404;2023-04-25T05:04:11;6.25;;;2.50;;
55813;SDS011;65494;42.818;0.404;2023-04-25T05:06:40;7.22;;;2.90;;
55813;SDS011;65494;42.818;0.404;2023-04-25T05:09:06;4.13;;;2.45;;
55813;SDS011;65494;42.818;0.404;2023-04-25T05:11:32;7.32;;;3.30;;
55813;SDS011;65494;42.818;0.404;2023-04-25T05:13:58;8.13;;;2.92;;
55813;SDS011;65494;42.818;0.404;2023-04-25T05:16:24;4.25;;;2.58;;
55813;SDS011;65494;42.818;0.404;2023-04-25T05:18:51;4.78;;;2.67;;
55813;SDS011;65494;42.818;0.404;2023-04-25T05:21:17;4.68;;;2.55;;
55813;SDS011;65494;42.818;0.404;2023-04-25T05:23:43;7.25;;;4.03;;
55813;SDS011;65494;42.818;0.404;2023-04-25T05:26:09;5.22;;;2.90;;
55813;SDS011;65494;42.818;0.404;2023-04-25T05:28:39;6.38;;;3.30;;
55813;SDS011;65494;42.818;0.404;2023-04-25T05:31:06;8.38;;;3.90;;
55813;SDS011;65494;42.818;0.404;2023-04-25T05:33:32;8.15;;;3.58;;
55813;SDS011;65494;42.818;0.404;2023-04-25T05:35:58;6.72;;;3.35;;
55813;SDS011;65494;42.818;0.404;2023-04-25T05:38:24;7.75;;;3.67;;
55813;SDS011;65494;42.818;0.404;2023-04-25T05:40:51;8.98;;;3.35;;
55813;SDS011;65494;42.818;0.404;2023-04-25T05:43:31;6.85;;;3.65;;
55813;SDS011;65494;42.818;0.404;2023-04-25T05:45:57;4.47;;;2.90;;
55813;SDS011;65494;42.818;0.404;2023-04-25T05:48:28;6.97;;;3.60;;
55813;SDS011;65494;42.818;0.404;2023-04-25T05:51:14;6.82;;;3.15;;
55813;SDS011;65494;42.818;0.404;2023-04-25T05:53:41;6.82;;;3.45;;
55813;SDS011;65494;42.818;0.404;2023-04-25T05:56:07;13.55;;;6.82;;
55813;SDS011;65494;42.818;0.404;2023-04-25T06:01:55;19.73;;;10.48;;
55813;SDS011;65494;42.818;0.404;2023-04-25T06:04:21;26.25;;;13.38;;
55813;SDS011;65494;42.818;0.404;2023-04-25T06:07:05;13.82;;;7.60;;
55813;SDS011;65494;42.818;0.404;2023-04-25T06:10:02;7.15;;;3.00;;
55813;SDS011;65494;42.818;0.404;2023-04-25T06:12:32;6.43;;;3.20;;
55813;SDS011;65494;42.818;0.404;2023-04-25T06:15:36;7.28;;;3.33;;
55813;SDS011;65494;42.818;0.404;2023-04-25T06:18:22;5.95;;;3.42;;
55813;SDS011;65494;42.818;0.404;2023-04-25T06:21:12;8.32;;;4.05;;
55813;SDS011;65494;42.818;0.404;2023-04-25T06:23:47;5.75;;;3.10;;
55813;SDS011;65494;42.818;0.404;2023-04-25T06:28:39;5.63;;;2.78;;
55813;SDS011;65494;42.818;0.404;2023-04-25T06:31:25;5.75;;;2.75;;
55813;SDS011;65494;42.818;0.404;2023-04-25T06:33:52;3.42;;;2.20;;
55813;SDS011;65494;42.818;0.404;2023-04-25T06:36:19;6.78;;;2.58;;
55813;SDS011;65494;42.818;0.404;2023-04-25T06:38:50;3.72;;;2.28;;
55813;SDS011;65494;42.818;0.404;2023-04-25T06:41:28;9.82;;;4.82;;
55813;SDS011;65494;42.818;0.404;2023-04-25T06:44:00;6.07;;;3.03;;
55813;SDS011;65494;42.818;0.404;2023-04-25T06:46:26;5.10;;;2.80;;
55813;SDS011;65494;42.818;0.404;2023-04-25T06:48:53;5.05;;;2.58;;
55813;SDS011;65494;42.818;0.404;2023-04-25T06:51:19;5.85;;;1.92;;
55813;SDS011;65494;42.818;0.404;2023-04-25T06:53:45;5.05;;;1.75;;
55813;SDS011;65494;42.818;0.404;2023-04-25T06:56:11;3.70;;;1.85;;
55813;SDS011;65494;42.818;0.404;2023-04-25T06:58:37;3.00;;;1.80;;
55813;SDS011;65494;42.818;0.404;2023-04-25T07:01:03;4.13;;;1.90;;
55813;SDS011;65494;42.818;0.404;2023-04-25T07:03:29;3.28;;;1.83;;
55813;SDS011;65494;42.818;0.404;2023-04-25T07:05:55;4.60;;;2.10;;
55813;SDS011;65494;42.818;0.404;2023-04-25T07:08:21;2.85;;;1.75;;
55813;SDS011;65494;42.818;0.404;2023-04-25T07:10:47;4.07;;;1.70;;
55813;SDS011;65494;42.818;0.404;2023-04-25T07:13:13;4.95;;;1.73;;
55813;SDS011;65494;42.818;0.404;2023-04-25T07:15:39;2.92;;;1.60;;
55813;SDS011;65494;42.818;0.404;2023-04-25T07:18:07;3.58;;;1.77;;
55813;SDS011;65494;42.818;0.404;2023-04-25T07:20:33;3.50;;;1.80;;
55813;SDS011;65494;42.818;0.404;2023-04-25T07:22:59;4.50;;;2.40;;
55813;SDS011;65494;42.818;0.404;2023-04-25T07:25:25;3.83;;;2.10;;
55813;SDS011;65494;42.818;0.404;2023-04-25T07:27:51;4.75;;;2.25;;
55813;SDS011;65494;42.818;0.404;2023-04-25T07:30:18;4.13;;;2.25;;
55813;SDS011;65494;42.818;0.404;2023-04-25T07:32:44;4.03;;;1.90;;
55813;SDS011;65494;42.818;0.404;2023-04-25T07:35:11;4.97;;;1.90;;
55813;SDS011;65494;42.818;0.404;2023-04-25T07:37:37;3.38;;;1.90;;
55813;SDS011;65494;42.818;0.404;2023-04-25T07:40:04;3.95;;;1.92;;
55813;SDS011;65494;42.818;0.404;2023-04-25T07:42:30;6.22;;;2.10;;
55813;SDS011;65494;42.818;0.404;2023-04-25T07:44:56;5.13;;;1.92;;
55813;SDS011;65494;42.818;0.404;2023-04-25T07:47:23;3.50;;;1.67;;
55813;SDS011;65494;42.818;0.404;2023-04-25T07:49:49;5.18;;;2.13;;
55813;SDS011;65494;42.818;0.404;2023-04-25T07:52:15;4.60;;;1.70;;
55813;SDS011;65494;42.818;0.404;2023-04-25T07:54:41;4.75;;;1.95;;
55813;SDS011;65494;42.818;0.404;2023-04-25T07:57:07;3.17;;;1.80;;
55813;SDS011;65494;42.818;0.404;2023-04-25T07:59:33;4.25;;;2.20;;
55813;SDS011;65494;42.818;0.404;2023-04-25T08:02:00;2.83;;;1.73;;
55813;SDS011;65494;42.818;0.404;2023-04-25T08:04:26;2.58;;;1.73;;
55813;SDS011;65494;42.818;0.404;2023-04-25T08:06:52;4.43;;;2.13;;
55813;SDS011;65494;42.818;0.404;2023-04-25T08:09:19;3.90;;;2.05;;
55813;SDS011;65494;42.818;0.404;2023-04-25T08:11:46;7.22;;;2.70;;
55813;SDS011;65494;42.818;0.404;2023-04-25T08:14:12;4.65;;;2.97;;
55813;SDS011;65494;42.818;0.404;2023-04-25T08:16:38;5.78;;;3.20;;
55813;SDS011;65494;42.818;0.404;2023-04-25T08:19:05;6.20;;;3.53;;
55813;SDS011;65494;42.818;0.404;2023-04-25T08:21:31;7.93;;;4.07;;
55813;SDS011;65494;42.818;0.404;2023-04-25T08:23:57;4.63;;;2.10;;
55813;SDS011;65494;42.818;0.404;2023-04-25T08:26:24;2.17;;;1.25;;
55813;SDS011;65494;42.818;0.404;2023-04-25T08:28:50;3.67;;;1.30;;
55813;SDS011;65494;42.818;0.404;2023-04-25T08:31:16;3.83;;;1.13;;
55813;SDS011;65494;42.818;0.404;2023-04-25T08:33:43;1.42;;;1.10;;
55813;SDS011;65494;42.818;0.404;2023-04-25T08:36:10;3.40;;;1.60;;
55813;SDS011;65494;42.818;0.404;2023-04-25T08:38:36;3.35;;;1.52;;
55813;SDS011;65494;42.818;0.404;2023-04-25T08:41:02;4.35;;;2.60;;
55813;SDS011;65494;42.818;0.404;2023-04-25T08:43:28;3.53;;;1.52;;
55813;SDS011;65494;42.818;0.404;2023-04-25T08:45:58;3.25;;;1.58;;
55813;SDS011;65494;42.818;0.404;2023-04-25T08:48:26;2.95;;;1.77;;
55813;SDS011;65494;42.818;0.404;2023-04-25T08:50:54;3.90;;;2.05;;
55813;SDS011;65494;42.818;0.404;2023-04-25T08:53:30;12.88;;;6.57;;
55813;SDS011;65494;42.818;0.404;2023-04-25T08:55:57;32.45;;;16.48;;
55813;SDS011;65494;42.818;0.404;2023-04-25T08:58:23;3.53;;;1.45;;
55813;SDS011;65494;42.818;0.404;2023-04-25T09:00:50;4.07;;;2.05;;
55813;SDS011;65494;42.818;0.404;2023-04-25T09:03:17;2.33;;;1.40;;
55813;SDS011;65494;42.818;0.404;2023-04-25T09:05:44;2.17;;;1.50;;
55813;SDS011;65494;42.818;0.404;2023-04-25T09:08:10;2.22;;;1.25;;
55813;SDS011;65494;42.818;0.404;2023-04-25T09:10:36;2.22;;;1.30;;
55813;SDS011;65494;42.818;0.404;2023-04-25T09:13:04;2.53;;;1.60;;
55813;SDS011;65494;42.818;0.404;2023-04-25T09:15:31;4.38;;;2.03;;
55813;SDS011;65494;42.818;0.404;2023-04-25T09:17:57;4.50;;;2.15;;
55813;SDS011;65494;42.818;0.404;2023-04-25T09:20:23;2.75;;;1.30;;
55813;SDS011;65494;42.818;0.404;2023-04-25T09:22:59;5.82;;;2.20;;
55813;SDS011;65494;42.818;0.404;2023-04-25T09:25:27;4.15;;;1.65;;
55813;SDS011;65494;42.818;0.404;2023-04-25T09:27:59;2.55;;;1.20;;
55813;SDS011;65494;42.818;0.404;2023-04-25T09:30:30;1.20;;;0.88;;
55813;SDS011;65494;42.818;0.404;2023-04-25T09:32:57;1.42;;;0.80;;
55813;SDS011;65494;42.818;0.404;2023-04-25T09:35:26;2.50;;;0.80;;
55813;SDS011;65494;42.818;0.404;2023-04-25T09:37:52;1.33;;;1.00;;
55813;SDS011;65494;42.818;0.404;2023-04-25T09:40:18;1.23;;;0.90;;
55813;SDS011;65494;42.818;0.404;2023-04-25T09:42:45;2.13;;;1.10;;
55813;SDS011;65494;42.818;0.404;2023-04-25T09:45:12;1.20;;;0.95;;
55813;SDS011;65494;42.818;0.404;2023-04-25T09:47:40;2.00;;;1.00;;
55813;SDS011;65494;42.818;0.404;2023-04-25T09:50:15;1.45;;;1.15;;
55813;SDS011;65494;42.818;0.404;2023-04-25T09:52:41;1.90;;;1.13;;
55813;SDS011;65494;42.818;0.404;2023-04-25T09:55:07;3.80;;;1.67;;
55813;SDS011;65494;42.818;0.404;2023-04-25T09:57:34;3.92;;;2.30;;
55813;SDS011;65494;42.818;0.404;2023-04-25T10:00:05;2.55;;;1.35;;
55813;SDS011;65494;42.818;0.404;2023-04-25T10:02:34;1.80;;;1.25;;
55813;SDS011;65494;42.818;0.404;2023-04-25T10:05:01;2.53;;;1.30;;
55813;SDS011;65494;42.818;0.404;2023-04-25T10:07:29;2.42;;;1.27;;
55813;SDS011;65494;42.818;0.404;2023-04-25T10:09:59;2.00;;;1.27;;
55813;SDS011;65494;42.818;0.404;2023-04-25T10:12:27;2.50;;;1.60;;
55813;SDS011;65494;42.818;0.404;2023-04-25T10:14:54;2.03;;;1.23;;
55813;SDS011;65494;42.818;0.404;2023-04-25T10:17:20;2.75;;;1.45;;
55813;SDS011;65494;42.818;0.404;2023-04-25T10:19:47;2.30;;;1.42;;
55813;SDS011;65494;42.818;0.404;2023-04-25T10:22:17;2.97;;;1.50;;
55813;SDS011;65494;42.818;0.404;2023-04-25T10:24:44;0.77;;;0.70;;
55813;SDS011;65494;42.818;0.404;2023-04-25T10:27:11;0.90;;;0.70;;
55813;SDS011;65494;42.818;0.404;2023-04-25T10:29:38;1.80;;;0.80;;
55813;SDS011;65494;42.818;0.404;2023-04-25T10:32:04;2.25;;;0.90;;
55813;SDS011;65494;42.818;0.404;2023-04-25T10:34:40;3.15;;;1.20;;
55813;SDS011;65494;42.818;0.404;2023-04-25T10:37:10;0.50;;;0.50;;
55813;SDS011;65494;42.818;0.404;2023-04-25T10:39:37;0.50;;;0.50;;
55813;SDS011;65494;42.818;0.404;2023-04-25T10:42:04;1.00;;;0.80;;
55813;SDS011;65494;42.818;0.404;2023-04-25T10:44:30;1.60;;;0.90;;
55813;SDS011;65494;42.818;0.404;2023-04-25T10:46:57;2.60;;;0.90;;
55813;SDS011;65494;42.818;0.404;2023-04-25T10:52:16;0.60;;;0.60;;
55813;SDS011;65494;42.818;0.404;2023-04-25T10:54:43;4.97;;;0.70;;
55813;SDS011;65494;42.818;0.404;2023-04-25T10:57:31;0.88;;;0.63;;
55813;SDS011;65494;42.818;0.404;2023-04-25T10:59:58;1.00;;;0.47;;
55813;SDS011;65494;42.818;0.404;2023-04-25T11:02:28;0.55;;;0.50;;
55813;SDS011;65494;42.818;0.404;2023-04-25T11:04:54;1.17;;;0.40;;
55813;SDS011;65494;42.818;0.404;2023-04-25T11:09:50;0.40;;;0.40;;
55813;SDS011;65494;42.818;0.404;2023-04-25T11:12:16;1.85;;;0.40;;
55813;SDS011;65494;42.818;0.404;2023-04-25T11:14:42;1.45;;;0.50;;
55813;SDS011;65494;42.818;0.404;2023-04-25T11:17:08;0.30;;;0.30;;
55813;SDS011;65494;42.818;0.404;2023-04-25T11:19:36;0.52;;;0.30;;
55813;SDS011;65494;42.818;0.404;2023-04-25T11:22:02;1.30;;;0.40;;
55813;SDS011;65494;42.818;0.404;2023-04-25T11:24:32;0.15;;;0.15;;
55813;SDS011;65494;42.818;0.404;2023-04-25T11:26:59;0.50;;;0.20;;
55813;SDS011;65494;42.818;0.404;2023-04-25T11:29:29;0.30;;;0.20;;
55813;SDS011;65494;42.818;0.404;2023-04-25T11:31:55;0.22;;;0.22;;
55813;SDS011;65494;42.818;0.404;2023-04-25T11:34:26;0.20;;;0.20;;
55813;SDS011;65494;42.818;0.404;2023-04-25T11:36:55;0.22;;;0.13;;
55813;SDS011;65494;42.818;0.404;2023-04-25T11:39:21;1.48;;;0.30;;
55813;SDS011;65494;42.818;0.404;2023-04-25T11:41:49;1.52;;;0.50;;
55813;SDS011;65494;42.818;0.404;2023-04-25T11:44:16;1.38;;;0.25;;
55813;SDS011;65494;42.818;0.404;2023-04-25T11:46:42;0.20;;;0.20;;
55813;SDS011;65494;42.818;0.404;2023-04-25T11:49:08;1.27;;;0.82;;
55813;SDS011;65494;42.818;0.404;2023-04-25T11:51:41;0.10;;;0.10;;
55813;SDS011;65494;42.818;0.404;2023-04-25T11:54:08;0.30;;;0.30;;
55813;SDS011;65494;42.818;0.404;2023-04-25T11:56:34;0.15;;;0.15;;
55813;SDS011;65494;42.818;0.404;2023-04-25T11:59:04;4.60;;;2.25;;
55813;SDS011;65494;42.818;0.404;2023-04-25T12:01:32;1.95;;;0.90;;
55813;SDS011;65494;42.818;0.404;2023-04-25T12:03:59;10.02;;;4.75;;
55813;SDS011;65494;42.818;0.404;2023-04-25T12:06:38;2.28;;;1.17;;
55813;SDS011;65494;42.818;0.404;2023-04-25T12:09:07;1.70;;;0.80;;
55813;SDS011;65494;42.818;0.404;2023-04-25T12:11:40;5.78;;;2.92;;
55813;SDS011;65494;42.818;0.404;2023-04-25T12:14:07;1.15;;;0.38;;
55813;SDS011;65494;42.818;0.404;2023-04-25T12:16:43;5.00;;;2.70;;
55813;SDS011;65494;42.818;0.404;2023-04-25T12:19:09;0.20;;;0.20;;
55813;SDS011;65494;42.818;0.404;2023-04-25T12:21:36;0.40;;;0.30;;
55813;SDS011;65494;42.818;0.404;2023-04-25T12:24:12;0.38;;;0.30;;
55813;SDS011;65494;42.818;0.404;2023-04-25T12:26:49;0.90;;;0.20;;
55813;SDS011;65494;42.818;0.404;2023-04-25T12:29:19;6.88;;;2.67;;
55813;SDS011;65494;42.818;0.404;2023-04-25T12:31:46;1.40;;;0.30;;
55813;SDS011;65494;42.818;0.404;2023-04-25T12:34:12;1.15;;;0.30;;
55813;SDS011;65494;42.818;0.404;2023-04-25T12:36:38;0.57;;;0.50;;
55813;SDS011;65494;42.818;0.404;2023-04-25T12:39:04;0.90;;;0.47;;
55813;SDS011;65494;42.818;0.404;2023-04-25T12:41:31;0.43;;;0.22;;
55813;SDS011;65494;42.818;0.404;2023-04-25T12:43:57;0.47;;;0.30;;
55813;SDS011;65494;42.818;0.404;2023-04-25T12:46:23;0.20;;;0.20;;
55813;SDS011;65494;42.818;0.404;2023-04-25T12:48:50;0.30;;;0.15;;
55813;SDS011;65494;42.818;0.404;2023-04-25T12:51:16;0.10;;;0.10;;
55813;SDS011;65494;42.818;0.404;2023-04-25T12:53:42;0.28;;;0.22;;
55813;SDS011;65494;42.818;0.404;2023-04-25T12:56:08;0.93;;;0.45;;
55813;SDS011;65494;42.818;0.404;2023-04-25T12:58:34;3.50;;;2.10;;
55813;SDS011;65494;42.818;0.404;2023-04-25T13:01:01;2.40;;;1.20;;
55813;SDS011;65494;42.818;0.404;2023-04-25T13:03:27;0.82;;;0.57;;
55813;SDS011;65494;42.818;0.404;2023-04-25T13:05:53;3.03;;;1.40;;
55813;SDS011;65494;42.818;0.404;2023-04-25T13:08:19;1.35;;;0.90;;
55813;SDS011;65494;42.818;0.404;2023-04-25T13:10:47;1.27;;;0.25;;
55813;SDS011;65494;42.818;0.404;2023-04-25T13:13:13;0.20;;;0.20;;
55813;SDS011;65494;42.818;0.404;2023-04-25T13:15:39;0.50;;;0.43;;
55813;SDS011;65494;42.818;0.404;2023-04-25T13:18:05;0.30;;;0.30;;
55813;SDS011;65494;42.818;0.404;2023-04-25T13:20:31;0.55;;;0.40;;
55813;SDS011;65494;42.818;0.404;2023-04-25T13:22:58;0.30;;;0.30;;
55813;SDS011;65494;42.818;0.404;2023-04-25T13:25:24;0.55;;;0.45;;
55813;SDS011;65494;42.818;0.404;2023-04-25T13:27:50;1.85;;;0.60;;
55813;SDS011;65494;42.818;0.404;2023-04-25T13:30:16;1.27;;;0.45;;
55813;SDS011;65494;42.818;0.404;2023-04-25T13:32:42;0.63;;;0.32;;
55813;SDS011;65494;42.818;0.404;2023-04-25T13:35:09;2.67;;;0.60;;
55813;SDS011;65494;42.818;0.404;2023-04-25T13:37:36;1.50;;;0.30;;
55813;SDS011;65494;42.818;0.404;2023-04-25T13:40:03;1.83;;;0.30;;
55813;SDS011;65494;42.818;0.404;2023-04-25T13:42:32;2.65;;;0.40;;
55813;SDS011;65494;42.818;0.404;2023-04-25T13:44:58;0.65;;;0.30;;
55813;SDS011;65494;42.818;0.404;2023-04-25T13:47:25;0.80;;;0.28;;
55813;SDS011;65494;42.818;0.404;2023-04-25T13:49:51;0.47;;;0.30;;
55813;SDS011;65494;42.818;0.404;2023-04-25T13:52:17;0.43;;;0.28;;
55813;SDS011;65494;42.818;0.404;2023-04-25T13:54:43;0.40;;;0.20;;
55813;SDS011;65494;42.818;0.404;2023-04-25T13:57:09;0.38;;;0.30;;
55813;SDS011;65494;42.818;0.404;2023-04-25T13:59:36;0.30;;;0.30;;
55813;SDS011;65494;42.818;0.404;2023-04-25T14:02:02;0.52;;;0.20;;
55813;SDS011;65494;42.818;0.404;2023-04-25T14:04:28;0.13;;;0.13;;
55813;SDS011;65494;42.818;0.404;2023-04-25T14:06:55;1.92;;;0.50;;
55813;SDS011;65494;42.818;0.404;2023-04-25T14:09:21;0.25;;;0.20;;
55813;SDS011;65494;42.818;0.404;2023-04-25T14:11:51;0.25;;;0.22;;
55813;SDS011;65494;42.818;0.404;2023-04-25T14:14:20;1.13;;;0.40;;
55813;SDS011;65494;42.818;0.404;2023-04-25T14:16:47;0.20;;;0.20;;
55813;SDS011;65494;42.818;0.404;2023-04-25T14:19:17;0.30;;;0.30;;
55813;SDS011;65494;42.818;0.404;2023-04-25T14:21:43;1.17;;;0.30;;
55813;SDS011;65494;42.818;0.404;2023-04-25T14:24:09;1.95;;;0.30;;
55813;SDS011;65494;42.818;0.404;2023-04-25T14:26:38;0.38;;;0.38;;
55813;SDS011;65494;42.818;0.404;2023-04-25T14:29:06;0.30;;;0.30;;
55813;SDS011;65494;42.818;0.404;2023-04-25T14:31:32;0.40;;;0.20;;
55813;SDS011;65494;42.818;0.404;2023-04-25T14:33:59;0.85;;;0.25;;
55813;SDS011;65494;42.818;0.404;2023-04-25T14:36:25;1.98;;;0.30;;
55813;SDS011;65494;42.818;0.404;2023-04-25T14:38:51;0.45;;;0.20;;
55813;SDS011;65494;42.818;0.404;2023-04-25T14:41:17;0.63;;;0.30;;
55813;SDS011;65494;42.818;0.404;2023-04-25T14:43:44;0.17;;;0.17;;
55813;SDS011;65494;42.818;0.404;2023-04-25T14:46:10;0.80;;;0.60;;
55813;SDS011;65494;42.818;0.404;2023-04-25T14:48:38;0.20;;;0.20;;
55813;SDS011;65494;42.818;0.404;2023-04-25T14:51:04;0.63;;;0.30;;
55813;SDS011;65494;42.818;0.404;2023-04-25T14:53:30;0.20;;;0.20;;
55813;SDS011;65494;42.818;0.404;2023-04-25T14:55:57;0.77;;;0.30;;
55813;SDS011;65494;42.818;0.404;2023-04-25T14:58:23;1.85;;;0.40;;
55813;SDS011;65494;42.818;0.404;2023-04-25T15:00:49;2.05;;;0.88;;
55813;SDS011;65494;42.818;0.404;2023-04-25T15:03:16;2.67;;;1.58;;